createdAt,value
2018-03-15T00:01:04.851Z,60.63
2018-03-15T00:03:34.746Z,61.64
2018-03-15T00:06:04.918Z,61.33
2018-03-15T00:08:34.089Z,61.66
2018-03-15T00:11:04.327Z,61.65
2018-03-15T00:13:33.433Z,61.43
2018-03-15T00:16:02.518Z,60.71
2018-03-15T00:18:31.632Z,60.66
2018-03-15T00:21:00.722Z,60.57
2018-03-15T00:23:29.901Z,60.67
2018-03-15T00:25:59.026Z,60.93
2018-03-15T00:28:28.119Z,60.76
2018-03-15T00:30:57.224Z,60.73
2018-03-15T00:33:26.308Z,60.77
2018-03-15T00:35:55.428Z,61.10
2018-03-15T00:38:25.275Z,61.21
2018-03-15T00:40:55.155Z,61.58
2018-03-15T00:43:25.032Z,61.46
2018-03-15T00:45:54.150Z,61.68
2018-03-15T00:48:23.237Z,61.74
2018-03-15T00:50:53.853Z,62.06
2018-03-15T00:53:23.010Z,61.83
2018-03-15T00:55:52.167Z,61.95
2018-03-15T00:58:21.255Z,61.79
2018-03-15T01:00:50.357Z,61.24
2018-03-15T01:03:19.484Z,61.50
2018-03-15T01:05:49.394Z,61.96
2018-03-15T01:08:18.517Z,62.40
2018-03-15T01:10:47.590Z,62.64
2018-03-15T01:13:17.479Z,62.14
2018-03-15T01:15:46.577Z,62.15
2018-03-15T01:18:15.708Z,62.82
2018-03-15T01:20:45.569Z,63.21
2018-03-15T01:23:15.477Z,63.04
2018-03-15T01:25:44.563Z,62.61
2018-03-15T01:28:13.886Z,62.71
2018-03-15T01:30:42.986Z,62.74
2018-03-15T01:33:12.112Z,62.87
2018-03-15T01:35:41.963Z,62.35
2018-03-15T01:38:11.134Z,62.84
2018-03-15T01:40:41.123Z,63.38
2018-03-15T01:43:10.213Z,63.63
2018-03-15T01:45:39.326Z,64.45
2018-03-15T01:48:09.203Z,63.88
2018-03-15T01:50:38.435Z,63.95
2018-03-15T01:53:07.542Z,63.68
2018-03-15T01:55:37.405Z,63.99
2018-03-15T01:58:06.569Z,63.98
2018-03-15T02:00:36.444Z,64.02
2018-03-15T02:03:05.678Z,64.95
2018-03-15T02:05:35.548Z,64.08
2018-03-15T02:08:04.656Z,64.33
2018-03-15T02:10:33.761Z,63.76
2018-03-15T02:13:02.888Z,63.85
2018-03-15T02:15:32.043Z,63.78
2018-03-15T02:18:01.941Z,63.88
2018-03-15T02:20:31.047Z,63.44
2018-03-15T02:23:00.153Z,63.76
2018-03-15T02:25:29.277Z,63.80
2018-03-15T02:27:59.154Z,63.72
2018-03-15T02:30:28.241Z,64.70
2018-03-15T02:32:57.348Z,64.83
2018-03-15T02:35:26.508Z,65.04
2018-03-15T02:37:55.594Z,64.87
2018-03-15T02:40:24.702Z,65.09
2018-03-15T02:42:53.807Z,65.57
2018-03-15T02:45:22.964Z,65.13
2018-03-15T02:47:52.328Z,65.07
2018-03-15T02:50:36.035Z,65.27
2018-03-15T02:53:05.132Z,64.64
2018-03-15T02:55:34.590Z,65.13
2018-03-15T02:58:06.066Z,65.03
2018-03-15T03:00:37.810Z,65.41
2018-03-15T03:03:07.760Z,65.55
2018-03-15T03:05:36.920Z,64.96
2018-03-15T03:08:08.007Z,65.69
2018-03-15T03:10:40.766Z,65.38
2018-03-15T03:13:11.233Z,65.33
2018-03-15T03:15:40.330Z,65.61
2018-03-15T03:18:10.193Z,66.02
2018-03-15T03:20:39.498Z,66.15
2018-03-15T03:23:13.113Z,66.71
2018-03-15T03:25:42.225Z,66.99
2018-03-15T03:28:11.454Z,67.79
2018-03-15T03:30:42.516Z,67.58
2018-03-15T03:33:12.375Z,67.44
2018-03-15T03:38:35.066Z,66.18
2018-03-15T03:41:05.983Z,65.64
2018-03-15T03:46:10.932Z,65.48
2018-03-15T03:48:41.214Z,66.00
2018-03-15T03:51:12.185Z,65.85
2018-03-15T03:53:41.272Z,66.32
2018-03-15T03:56:17.578Z,66.76
2018-03-15T03:58:47.824Z,66.53
2018-03-15T04:14:52.750Z,66.85
2018-03-15T04:17:23.082Z,67.15
2018-03-15T04:20:00.601Z,67.50
2018-03-15T04:22:30.133Z,67.10
2018-03-15T04:24:59.237Z,66.94
2018-03-15T04:27:28.358Z,66.82
2018-03-15T04:29:57.452Z,66.99
2018-03-15T04:32:26.538Z,66.96
2018-03-15T04:34:58.163Z,66.95
2018-03-15T04:37:27.620Z,66.80
2018-03-15T04:40:03.282Z,67.11
2018-03-15T04:42:35.786Z,67.47
2018-03-15T04:45:06.497Z,67.47
2018-03-15T04:47:35.625Z,67.78
2018-03-15T04:50:04.792Z,67.96
2018-03-15T04:52:36.190Z,68.38
2018-03-15T04:55:05.293Z,68.17
2018-03-15T04:57:34.419Z,68.12
2018-03-15T05:00:06.755Z,67.86
2018-03-15T05:02:37.015Z,67.91
2018-03-15T05:05:06.898Z,67.87
2018-03-15T05:07:36.122Z,67.85
2018-03-15T05:10:05.216Z,68.53
2018-03-15T05:12:34.991Z,68.81
2018-03-15T05:15:06.183Z,68.22
2018-03-15T05:17:35.455Z,67.85
2018-03-15T05:20:06.197Z,68.31
2018-03-15T05:22:36.376Z,68.44
2018-03-15T05:25:05.490Z,68.03
2018-03-15T05:27:34.613Z,68.01
2018-03-15T05:30:05.598Z,68.10
2018-03-15T05:32:35.716Z,68.66
2018-03-15T05:35:06.327Z,68.83
2018-03-15T05:37:36.673Z,68.83
2018-03-15T05:53:19.512Z,67.76
2018-03-15T05:58:28.001Z,67.81
2018-03-15T06:00:59.590Z,67.73
2018-03-15T06:03:30.829Z,67.90
2018-03-15T06:05:59.938Z,67.81
2018-03-15T06:08:29.030Z,67.65
2018-03-15T06:10:58.353Z,67.76
2018-03-15T06:13:27.462Z,67.60
2018-03-15T06:15:57.527Z,67.89
2018-03-15T06:18:28.040Z,68.13
2018-03-15T06:20:57.151Z,68.10
2018-03-15T06:23:33.120Z,68.18
2018-03-15T06:26:04.674Z,67.84
2018-03-15T06:28:36.034Z,67.31
2018-03-15T06:31:05.149Z,67.22
2018-03-15T06:33:44.630Z,67.13
2018-03-15T06:36:13.841Z,66.93
2018-03-15T06:38:46.739Z,67.45
2018-03-15T06:41:15.826Z,67.20
2018-03-15T06:43:50.786Z,67.20
2018-03-15T06:46:22.238Z,67.01
2018-03-15T06:48:51.441Z,66.92
2018-03-15T06:51:20.521Z,66.63
2018-03-15T06:53:49.647Z,66.53
2018-03-15T06:56:18.750Z,66.78
2018-03-15T06:58:47.844Z,66.59
2018-03-15T07:01:16.972Z,66.46
2018-03-15T07:03:46.856Z,66.55
2018-03-15T07:06:18.648Z,66.90
2018-03-15T07:08:48.387Z,66.56
2018-03-15T07:11:17.750Z,66.38
2018-03-15T07:13:46.895Z,66.32
2018-03-15T07:16:16.409Z,66.62
2018-03-15T07:18:45.480Z,66.47
2018-03-15T07:21:16.014Z,66.65
2018-03-15T07:23:45.089Z,66.04
2018-03-15T07:26:14.680Z,66.64
2018-03-15T07:28:45.082Z,66.40
2018-03-15T07:31:15.928Z,66.41
2018-03-15T07:33:48.008Z,65.98
2018-03-15T07:36:17.870Z,65.54
2018-03-15T07:38:48.029Z,65.23
2018-03-15T07:41:28.542Z,65.10
2018-03-15T07:43:57.661Z,65.20
2018-03-15T07:46:26.736Z,65.49
2018-03-15T07:48:57.569Z,64.94
2018-03-15T07:51:28.894Z,64.59
2018-03-15T07:53:58.915Z,64.34
2018-03-15T07:56:29.813Z,64.25
2018-03-15T07:58:59.274Z,64.21
2018-03-15T08:01:30.473Z,64.20
2018-03-15T08:04:00.179Z,63.98
2018-03-15T08:06:30.024Z,63.84
2018-03-15T08:08:59.919Z,64.02
2018-03-15T08:11:29.384Z,64.29
2018-03-15T08:14:00.935Z,63.57
2018-03-15T08:16:30.882Z,63.54
2018-03-15T08:19:00.454Z,63.57
2018-03-15T08:21:29.573Z,63.29
2018-03-15T08:23:59.354Z,62.99
2018-03-15T08:26:29.434Z,63.10
2018-03-15T08:29:00.103Z,63.15
2018-03-15T08:31:33.039Z,62.87
2018-03-15T08:34:02.247Z,63.00
2018-03-15T08:36:34.057Z,62.53
2018-03-15T08:39:03.148Z,62.49
2018-03-15T08:41:32.354Z,62.36
2018-03-15T08:44:03.299Z,61.97
2018-03-15T08:46:34.835Z,61.82
2018-03-15T08:49:05.258Z,61.89
2018-03-15T08:51:34.352Z,61.75
2018-03-15T08:54:12.428Z,61.68
2018-03-15T08:56:46.992Z,61.60
2018-03-15T08:59:19.762Z,61.55
2018-03-15T09:01:49.146Z,61.04
2018-03-15T09:04:22.669Z,60.54
2018-03-15T09:06:54.478Z,60.34
2018-03-15T09:09:23.889Z,60.07
2018-03-15T09:11:54.571Z,59.66
2018-03-15T09:14:26.736Z,59.41
2018-03-15T09:16:56.167Z,59.72
2018-03-15T09:19:27.638Z,59.51
2018-03-15T09:21:57.602Z,59.42
2018-03-15T09:24:27.296Z,59.37
2018-03-15T09:26:56.690Z,59.43
2018-03-15T09:29:26.002Z,58.95
2018-03-15T09:31:55.878Z,58.77
2018-03-15T09:34:26.555Z,59.14
2018-03-15T09:36:56.248Z,58.92
2018-03-15T09:39:25.854Z,58.85
2018-03-15T09:41:55.898Z,58.07
2018-03-15T09:44:25.282Z,57.76
2018-03-15T09:46:55.875Z,57.49
2018-03-15T09:49:25.026Z,56.88
2018-03-15T09:51:54.153Z,56.54
2018-03-15T09:54:23.278Z,56.29
2018-03-15T09:56:53.183Z,55.96
2018-03-15T09:59:23.110Z,55.50
2018-03-15T10:01:53.008Z,55.82
2018-03-15T10:04:22.116Z,55.80
2018-03-15T10:06:52.034Z,55.82
2018-03-15T10:09:21.916Z,55.85
2018-03-15T10:11:51.050Z,55.77
2018-03-15T10:14:20.923Z,55.62
2018-03-15T10:16:50.050Z,55.90
2018-03-15T10:19:19.159Z,55.80
2018-03-15T10:21:49.084Z,55.85
2018-03-15T10:24:18.944Z,56.01
2018-03-15T10:26:48.055Z,55.56
2018-03-15T10:29:17.186Z,55.72
2018-03-15T10:31:47.053Z,55.77
2018-03-15T10:34:16.180Z,55.60
2018-03-15T10:36:46.085Z,55.89
2018-03-15T10:39:15.206Z,55.39
2018-03-15T10:41:45.088Z,55.14
2018-03-15T10:44:14.258Z,55.01
2018-03-15T10:46:43.389Z,54.47
2018-03-15T10:49:12.504Z,54.71
2018-03-15T10:51:42.399Z,54.62
2018-03-15T10:54:13.782Z,54.93
2018-03-15T10:56:42.893Z,54.97
2018-03-15T10:59:12.027Z,54.44
2018-03-15T11:01:46.537Z,54.11
2018-03-15T11:04:15.694Z,53.48
2018-03-15T11:06:50.351Z,53.46
2018-03-15T11:09:23.320Z,53.11
2018-03-15T11:11:52.477Z,52.61
2018-03-15T11:14:21.574Z,53.03
2018-03-15T11:16:51.895Z,52.81
2018-03-15T11:19:22.792Z,52.67
2018-03-15T11:21:52.131Z,52.63
2018-03-15T11:24:25.611Z,52.76
2018-03-15T11:26:55.287Z,52.29
2018-03-15T11:29:31.526Z,52.28
2018-03-15T11:32:01.704Z,52.06
2018-03-15T11:34:32.252Z,52.00
2018-03-15T11:37:01.383Z,51.88
2018-03-15T11:39:30.582Z,51.24
2018-03-15T11:42:00.226Z,52.40
2018-03-15T11:44:30.356Z,51.70
2018-03-15T11:46:59.461Z,51.42
2018-03-15T11:49:28.584Z,51.09
2018-03-15T11:51:58.484Z,50.98
2018-03-15T11:54:27.609Z,50.95
2018-03-15T11:56:57.507Z,50.23
2018-03-15T11:59:27.398Z,50.35
2018-03-15T12:01:56.534Z,49.29
2018-03-15T12:04:25.926Z,48.51
2018-03-15T12:06:55.814Z,47.57
2018-03-15T12:09:24.969Z,46.93
2018-03-15T12:11:54.071Z,46.96
2018-03-15T12:14:23.206Z,47.07
2018-03-15T12:16:57.076Z,47.17
2018-03-15T12:19:27.217Z,46.70
2018-03-15T12:21:56.355Z,46.99
2018-03-15T12:24:25.491Z,46.96
2018-03-15T12:26:54.609Z,46.96
2018-03-15T12:29:23.743Z,46.79
2018-03-15T12:31:53.634Z,46.75
2018-03-15T12:34:22.762Z,46.72
2018-03-15T12:36:52.650Z,47.02
2018-03-15T12:39:21.838Z,46.53
2018-03-15T12:41:50.947Z,47.02
2018-03-15T12:44:20.103Z,46.31
2018-03-15T12:46:49.214Z,46.74
2018-03-15T12:49:18.331Z,47.54
2018-03-15T12:51:49.666Z,47.86
2018-03-15T12:54:20.392Z,47.84
2018-03-15T12:57:01.346Z,47.67
2018-03-15T12:59:32.192Z,47.69
2018-03-15T13:02:01.635Z,48.09
2018-03-15T13:04:33.766Z,46.63
2018-03-15T13:10:13.356Z,44.87
2018-03-15T13:12:44.847Z,45.14
2018-03-15T13:15:16.917Z,45.64
2018-03-15T13:17:48.578Z,45.86
2018-03-15T13:20:22.259Z,45.98
2018-03-15T13:22:53.073Z,45.80
2018-03-15T13:25:23.137Z,44.94
2018-03-15T13:27:53.372Z,45.28
2018-03-15T13:30:26.073Z,44.92
2018-03-15T13:32:59.197Z,44.88
2018-03-15T13:35:28.894Z,44.68
2018-03-15T13:37:58.009Z,44.37
2018-03-15T13:40:28.779Z,42.92
2018-03-15T13:42:59.121Z,42.52
2018-03-15T13:45:30.535Z,42.76
2018-03-15T13:48:00.731Z,42.70
2018-03-15T13:50:30.498Z,43.02
2018-03-15T13:53:00.094Z,43.06
2018-03-15T13:55:30.078Z,43.34
2018-03-15T13:57:59.214Z,43.67
2018-03-15T14:00:28.818Z,43.50
2018-03-15T14:02:58.808Z,43.79
2018-03-15T14:05:27.983Z,44.07
2018-03-15T14:07:57.124Z,44.61
2018-03-15T14:10:27.443Z,44.41
2018-03-15T14:13:03.226Z,44.33
2018-03-15T14:15:33.004Z,44.63
2018-03-15T14:18:02.107Z,46.96
2018-03-15T14:20:31.238Z,47.98
2018-03-15T14:23:01.864Z,48.60
2018-03-15T14:25:31.261Z,48.95
2018-03-15T14:28:00.387Z,49.03
2018-03-15T14:30:32.508Z,49.29
2018-03-15T14:33:04.735Z,49.07
2018-03-15T14:35:33.857Z,49.24
2018-03-15T14:38:04.838Z,49.47
2018-03-15T14:40:34.746Z,49.62
2018-03-15T14:43:05.790Z,49.78
2018-03-15T14:45:35.270Z,49.83
2018-03-15T14:48:06.465Z,50.16
2018-03-15T14:50:35.834Z,50.32
2018-03-15T14:53:09.845Z,50.27
2018-03-15T14:55:41.990Z,50.25
2018-03-15T14:58:14.029Z,50.76
2018-03-15T15:03:33.134Z,52.91
2018-03-15T15:06:03.271Z,54.32
2018-03-15T15:08:32.364Z,53.41
2018-03-15T15:11:01.848Z,53.77
2018-03-15T15:13:31.751Z,54.03
2018-03-15T15:16:01.673Z,53.79
2018-03-15T15:18:31.605Z,53.65
2018-03-15T15:21:00.714Z,53.57
2018-03-15T15:23:29.861Z,53.72
2018-03-15T15:25:59.008Z,53.66
2018-03-15T15:28:28.153Z,53.92
2018-03-15T15:30:57.363Z,54.29
2018-03-15T15:33:26.525Z,54.39
2018-03-15T15:35:55.711Z,55.02
2018-03-15T15:38:24.883Z,55.83
2018-03-15T15:40:54.106Z,56.49
2018-03-15T15:43:23.265Z,56.45
2018-03-15T15:45:52.417Z,55.54
2018-03-15T15:48:21.557Z,56.98
2018-03-15T15:50:51.506Z,57.03
2018-03-15T15:53:20.640Z,56.79
2018-03-15T15:55:49.837Z,58.80
2018-03-15T15:58:18.986Z,58.94
2018-03-15T16:00:48.890Z,58.66
2018-03-15T16:03:18.067Z,58.70
2018-03-15T16:05:47.656Z,58.91
2018-03-15T16:08:16.828Z,58.98
2018-03-15T16:10:46.755Z,58.98
2018-03-15T16:13:16.049Z,59.70
2018-03-15T16:15:45.246Z,60.40
2018-03-15T16:18:14.455Z,61.88
2018-03-15T16:20:43.613Z,63.58
2018-03-15T16:23:12.867Z,64.23
2018-03-15T16:25:42.832Z,63.73
2018-03-15T16:28:12.709Z,63.99
2018-03-15T16:30:41.851Z,63.88
2018-03-15T16:33:11.022Z,63.75
2018-03-15T16:35:40.929Z,64.90
2018-03-15T16:38:10.951Z,66.20
2018-03-15T16:40:40.147Z,67.54
2018-03-15T16:43:09.312Z,68.35
2018-03-15T16:45:38.434Z,69.34
2018-03-15T16:48:07.591Z,69.44
2018-03-15T16:50:36.713Z,69.58
2018-03-15T16:53:06.677Z,68.96
2018-03-15T16:55:35.847Z,68.20
2018-03-15T16:58:05.779Z,68.71
2018-03-15T17:00:35.667Z,69.82
2018-03-15T17:03:05.793Z,69.91
2018-03-15T17:05:34.944Z,70.07
2018-03-15T17:08:04.064Z,70.98
2018-03-15T17:10:34.018Z,71.28
2018-03-15T17:13:03.920Z,70.81
2018-03-15T17:15:33.839Z,70.83
2018-03-15T17:18:03.719Z,72.00
2018-03-15T17:20:32.878Z,72.03
2018-03-15T17:23:02.006Z,72.83
2018-03-15T17:25:31.166Z,72.58
2018-03-15T17:28:01.029Z,72.85
2018-03-15T17:30:30.181Z,72.48
2018-03-15T17:32:59.311Z,72.69
2018-03-15T17:35:28.438Z,72.04
2018-03-15T17:37:57.629Z,72.07
2018-03-15T17:40:26.762Z,72.77
2018-03-15T17:42:55.905Z,73.12
2018-03-15T17:45:25.093Z,72.78
2018-03-15T17:47:54.248Z,73.37
2018-03-15T17:50:24.137Z,73.64
2018-03-15T17:52:53.276Z,74.25
2018-03-15T17:55:22.438Z,74.07
2018-03-15T17:57:51.613Z,73.71
2018-03-15T18:00:20.714Z,73.48
2018-03-15T18:02:49.856Z,73.75
2018-03-15T18:05:19.001Z,74.18
2018-03-15T18:07:48.133Z,74.39
2018-03-15T18:10:17.293Z,74.59
2018-03-15T18:12:47.199Z,74.55
2018-03-15T18:15:16.427Z,74.22
2018-03-15T18:17:45.561Z,73.44
2018-03-15T18:20:14.698Z,73.06
2018-03-15T18:22:43.897Z,73.51
2018-03-15T18:25:13.858Z,71.99
2018-03-15T18:27:43.757Z,72.45
2018-03-15T18:30:12.868Z,72.60
2018-03-15T18:32:45.398Z,73.75
2018-03-15T18:35:15.465Z,74.77
2018-03-15T18:37:45.233Z,75.62
2018-03-15T18:40:14.446Z,75.36
2018-03-15T18:42:44.640Z,74.90
2018-03-15T18:45:14.914Z,74.73
2018-03-15T18:47:44.843Z,74.21
2018-03-15T18:50:14.746Z,74.36
2018-03-15T18:52:44.665Z,72.90
2018-03-15T18:55:14.568Z,72.68
2018-03-15T18:57:44.007Z,73.05
2018-03-15T19:00:13.123Z,73.38
2018-03-15T19:02:42.397Z,73.56
2018-03-15T19:05:11.509Z,73.58
2018-03-15T19:07:40.662Z,73.36
2018-03-15T19:10:09.813Z,73.43
2018-03-15T19:12:38.944Z,73.41
2018-03-15T19:15:09.016Z,73.32
2018-03-15T19:17:38.186Z,73.40
2018-03-15T19:20:09.701Z,72.99
2018-03-15T19:22:39.691Z,73.14
2018-03-15T19:25:09.299Z,72.96
2018-03-15T19:27:38.652Z,72.89
2018-03-15T19:30:08.539Z,73.09
2018-03-15T19:32:38.516Z,73.03
2018-03-15T19:35:09.802Z,73.07
2018-03-15T19:37:39.529Z,73.18
2018-03-15T19:40:10.341Z,73.10
2018-03-15T19:42:39.646Z,72.70
2018-03-15T19:45:09.652Z,72.94
2018-03-15T19:47:38.896Z,73.17
2018-03-15T19:50:09.770Z,72.75
2018-03-15T19:52:39.687Z,72.41
2018-03-15T19:55:09.543Z,72.36
2018-03-15T19:57:41.117Z,72.00
2018-03-15T20:00:11.998Z,72.17
2018-03-15T20:02:42.096Z,72.56
2018-03-15T20:05:12.080Z,72.67
2018-03-15T20:07:42.844Z,72.79
2018-03-15T20:10:12.190Z,72.93
2018-03-15T20:12:41.401Z,73.10
2018-03-15T20:15:11.200Z,73.25
2018-03-15T20:17:40.474Z,73.40
2018-03-15T20:20:10.680Z,73.27
2018-03-15T20:22:45.767Z,73.49
2018-03-15T20:25:14.897Z,73.63
2018-03-15T20:27:50.338Z,73.64
2018-03-15T20:30:20.166Z,73.59
2018-03-15T20:32:55.702Z,73.82
2018-03-15T20:35:27.464Z,74.05
2018-03-15T20:37:58.757Z,74.29
2018-03-15T20:53:53.068Z,74.54
2018-03-15T20:56:22.690Z,74.76
2018-03-15T20:58:52.113Z,74.44
2018-03-15T21:01:22.316Z,74.54
2018-03-15T21:03:52.590Z,74.94
2018-03-15T21:06:22.157Z,74.89
2018-03-15T21:08:52.071Z,74.69
2018-03-15T21:11:21.968Z,74.60
2018-03-15T21:13:51.271Z,75.07
2018-03-15T21:16:21.049Z,75.13
2018-03-15T21:18:50.215Z,74.98
2018-03-15T21:21:19.719Z,75.10
2018-03-15T21:23:48.908Z,74.95
2018-03-15T21:26:18.904Z,74.91
2018-03-15T21:28:48.880Z,74.83
2018-03-15T21:31:18.303Z,74.78
2018-03-15T21:33:47.664Z,74.72
2018-03-15T21:36:16.805Z,74.64
2018-03-15T21:38:45.933Z,74.66
2018-03-15T21:41:16.619Z,74.63
2018-03-15T21:43:46.505Z,74.57
2018-03-15T21:46:15.621Z,74.48
2018-03-15T21:48:44.715Z,74.35
2018-03-15T21:51:13.833Z,74.00
2018-03-15T21:53:42.936Z,73.93
2018-03-15T21:56:12.045Z,73.82
2018-03-15T21:58:41.139Z,73.97
2018-03-15T22:01:10.285Z,73.51
2018-03-15T22:03:40.168Z,73.72
2018-03-15T22:06:10.105Z,73.33
2018-03-15T22:08:39.192Z,73.28
2018-03-15T22:11:08.310Z,73.39
2018-03-15T22:13:37.447Z,73.23
2018-03-15T22:16:06.564Z,73.51
2018-03-15T22:18:36.463Z,73.41
2018-03-15T22:21:06.526Z,73.47
2018-03-15T22:23:35.633Z,73.24
2018-03-15T22:26:04.725Z,73.43
2018-03-15T22:28:33.834Z,73.06
2018-03-15T22:31:02.928Z,72.54
2018-03-15T22:33:32.047Z,72.61
2018-03-15T22:36:01.148Z,72.43
2018-03-15T22:38:30.261Z,72.39
2018-03-15T22:41:00.117Z,72.51
2018-03-15T22:43:29.245Z,72.50
2018-03-15T22:45:58.366Z,73.35
2018-03-15T22:48:27.485Z,73.37
2018-03-15T22:50:57.324Z,73.59
2018-03-15T22:53:26.436Z,73.63
2018-03-15T22:55:55.534Z,73.59
2018-03-15T22:58:25.442Z,73.91
2018-03-15T23:00:54.561Z,74.13
2018-03-15T23:03:23.635Z,74.59
2018-03-15T23:05:52.751Z,74.78
2018-03-15T23:08:21.835Z,74.34
2018-03-15T23:10:51.735Z,74.45
2018-03-15T23:13:20.813Z,74.68
2018-03-15T23:15:49.927Z,74.39
2018-03-15T23:18:19.051Z,74.65
2018-03-15T23:20:48.169Z,74.57
2018-03-15T23:23:17.250Z,74.45
2018-03-15T23:25:46.377Z,74.60
2018-03-15T23:28:15.485Z,74.03
2018-03-15T23:30:44.583Z,74.36
2018-03-15T23:33:13.697Z,74.29
2018-03-15T23:35:42.817Z,74.22
2018-03-15T23:38:11.935Z,74.41
2018-03-15T23:40:41.046Z,73.75
2018-03-15T23:43:10.909Z,72.97
2018-03-15T23:45:40.021Z,72.86
2018-03-15T23:48:09.282Z,73.15
2018-03-15T23:50:39.147Z,73.08
2018-03-15T23:53:08.257Z,72.87
2018-03-15T23:55:38.114Z,72.97
2018-03-15T23:58:07.214Z,73.34
